createdAt,value
2023-01-30T00:01:55.399Z,101498.63
2023-01-30T00:04:23.085Z,101501.34
2023-01-30T00:06:50.564Z,101495.22
2023-01-30T00:09:18.204Z,101489.97
2023-01-30T00:11:45.639Z,101492.56
2023-01-30T00:14:13.180Z,101492.56
2023-01-30T00:16:40.665Z,101501.31
2023-01-30T00:19:08.147Z,101496.06
2023-01-30T00:21:35.469Z,101501.00
2023-01-30T00:24:03.375Z,101492.72
2023-01-30T00:26:30.853Z,101498.78
2023-01-30T00:28:58.368Z,101502.75
2023-01-30T00:31:25.879Z,101505.81
2023-01-30T00:33:53.425Z,101517.81
2023-01-30T00:36:24.250Z,101510.75
2023-01-30T00:38:52.669Z,101516.06
2023-01-30T00:41:22.626Z,101512.31
2023-01-30T00:44:08.671Z,101513.25
2023-01-30T00:46:54.394Z,101506.59
2023-01-30T00:49:22.669Z,101514.50
2023-01-30T00:51:50.038Z,101503.47
2023-01-30T00:54:17.458Z,101506.13
2023-01-30T00:56:44.887Z,101502.84
2023-01-30T00:59:12.458Z,101511.94
2023-01-30T01:01:40.208Z,101507.31
2023-01-30T01:04:10.782Z,101494.78
2023-01-30T01:06:39.253Z,101498.63
2023-01-30T01:09:07.033Z,101491.56
2023-01-30T01:11:34.765Z,101495.88
2023-01-30T01:14:04.339Z,101497.00
2023-01-30T01:16:33.048Z,101495.97
2023-01-30T01:19:01.132Z,101494.28
2023-01-30T01:21:29.009Z,101503.75
2023-01-30T01:24:00.660Z,101490.41
2023-01-30T01:26:28.820Z,101495.44
2023-01-30T01:28:59.947Z,101494.25
2023-01-30T01:31:27.530Z,101497.19
2023-01-30T01:33:58.369Z,101498.88
2023-01-30T01:36:52.223Z,101498.94
2023-01-30T01:39:14.214Z,101503.38
2023-01-30T01:41:42.599Z,101504.03
2023-01-30T01:44:12.584Z,101501.06
2023-01-30T01:46:57.212Z,101506.47
2023-01-30T01:49:43.231Z,101505.44
2023-01-30T01:52:16.314Z,101501.94
2023-01-30T01:54:58.459Z,101510.56
2023-01-30T01:57:34.009Z,101504.16
2023-01-30T02:00:13.304Z,101513.31
2023-01-30T02:02:50.164Z,101518.28
2023-01-30T02:05:22.399Z,101508.72
2023-01-30T02:08:12.872Z,101511.72
2023-01-30T02:10:54.424Z,101507.50
2023-01-30T02:13:22.288Z,101513.75
2023-01-30T02:15:50.659Z,101511.28
2023-01-30T02:18:19.208Z,101512.84
2023-01-30T02:21:11.574Z,101514.13
2023-01-30T02:23:51.164Z,101520.06
2023-01-30T02:29:23.209Z,101512.50
2023-01-30T02:32:05.763Z,101513.88
2023-01-30T02:34:59.141Z,101502.03
2023-01-30T02:37:44.605Z,101505.78
2023-01-30T02:40:18.384Z,101503.69
2023-01-30T02:43:00.945Z,101507.31
2023-01-30T02:45:33.049Z,101511.03
2023-01-30T02:48:10.971Z,101509.09
2023-01-30T02:50:38.357Z,101516.03
2023-01-30T02:53:07.237Z,101515.38
2023-01-30T02:55:34.961Z,101511.31
2023-01-30T02:58:04.969Z,101514.25
2023-01-30T03:00:35.685Z,101511.72
2023-01-30T03:03:18.564Z,101504.81
2023-01-30T03:05:54.573Z,101503.19
2023-01-30T03:08:33.256Z,101501.41
2023-01-30T03:11:08.773Z,101502.97
2023-01-30T03:13:53.423Z,101501.66
2023-01-30T03:16:38.208Z,101495.72
2023-01-30T03:19:10.185Z,101498.09
2023-01-30T03:21:42.592Z,101510.78
2023-01-30T03:24:10.971Z,101509.25
2023-01-30T03:26:45.224Z,101499.13
2023-01-30T03:29:13.004Z,101506.22
2023-01-30T03:31:40.722Z,101504.69
2023-01-30T03:34:09.089Z,101503.81
2023-01-30T03:36:38.511Z,101507.63
2023-01-30T03:39:06.506Z,101501.63
2023-01-30T03:41:34.389Z,101491.91
2023-01-30T03:44:04.075Z,101495.72
2023-01-30T03:46:32.308Z,101491.84
2023-01-30T03:48:59.867Z,101492.66
2023-01-30T03:54:11.705Z,101492.59
2023-01-30T03:56:39.315Z,101497.22
2023-01-30T03:59:08.417Z,101503.50
2023-01-30T04:01:41.491Z,101502.69
2023-01-30T04:04:09.116Z,101508.38
2023-01-30T04:06:36.822Z,101520.13
2023-01-30T04:09:05.547Z,101528.22
2023-01-30T04:11:45.778Z,101527.09
2023-01-30T04:14:13.649Z,101530.31
2023-01-30T04:17:04.038Z,101532.56
2023-01-30T04:20:01.083Z,101533.41
2023-01-30T04:22:31.199Z,101530.25
2023-01-30T04:24:59.084Z,101533.44
2023-01-30T04:27:26.827Z,101537.69
2023-01-30T04:30:14.753Z,101531.06
2023-01-30T04:32:43.340Z,101537.94
2023-01-30T04:35:12.022Z,101534.19
2023-01-30T04:37:40.382Z,101538.47
2023-01-30T04:40:10.281Z,101539.69
2023-01-30T04:48:27.165Z,101542.34
2023-01-30T04:50:57.409Z,101536.53
2023-01-30T04:53:25.992Z,101535.50
2023-01-30T04:56:01.810Z,101539.13
2023-01-30T04:58:38.022Z,101542.94
2023-01-30T05:01:17.686Z,101530.09
2023-01-30T05:03:58.014Z,101544.28
2023-01-30T05:06:47.675Z,101538.94
2023-01-30T05:09:26.807Z,101549.19
2023-01-30T05:11:58.853Z,101551.53
2023-01-30T05:14:31.435Z,101559.25
2023-01-30T05:17:08.606Z,101562.28
2023-01-30T05:19:56.211Z,101565.31
2023-01-30T05:25:44.249Z,101570.19
2023-01-30T05:28:14.348Z,101567.72
2023-01-30T05:30:47.251Z,101554.44
2023-01-30T05:33:15.209Z,101556.44
2023-01-30T05:35:50.544Z,101555.34
2023-01-30T05:38:18.181Z,101554.34
2023-01-30T05:40:45.937Z,101545.75
2023-01-30T05:43:14.687Z,101552.91
2023-01-30T05:45:42.695Z,101555.88
2023-01-30T05:48:10.244Z,101555.75
2023-01-30T05:50:37.921Z,101550.06
2023-01-30T05:53:05.721Z,101542.00
2023-01-30T05:55:33.800Z,101532.66
2023-01-30T05:58:01.700Z,101520.91
2023-01-30T06:00:29.665Z,101518.34
2023-01-30T06:02:58.534Z,101519.56
2023-01-30T06:05:26.395Z,101516.72
2023-01-30T06:07:55.158Z,101517.06
2023-01-30T06:10:28.570Z,101512.19
2023-01-30T06:12:59.615Z,101521.13
2023-01-30T06:18:12.333Z,101524.47
2023-01-30T06:20:41.003Z,101528.22
2023-01-30T06:25:53.373Z,101524.09
2023-01-30T06:28:21.932Z,101523.09
2023-01-30T06:30:50.299Z,101513.72
2023-01-30T06:33:19.732Z,101508.66
2023-01-30T06:35:50.647Z,101509.66
2023-01-30T06:38:19.182Z,101516.56
2023-01-30T06:40:48.929Z,101512.88
2023-01-30T06:43:17.085Z,101509.34
2023-01-30T06:45:45.649Z,101516.13
2023-01-30T06:48:21.874Z,101526.66
2023-01-30T06:50:51.616Z,101516.66
2023-01-30T06:53:20.140Z,101513.50
2023-01-30T06:55:51.891Z,101503.78
2023-01-30T06:58:21.427Z,101517.72
2023-01-30T07:00:50.561Z,101526.53
2023-01-30T07:03:22.003Z,101517.47
2023-01-30T07:05:53.032Z,101525.59
2023-01-30T07:08:25.156Z,101522.94
2023-01-30T07:10:54.072Z,101511.53
2023-01-30T07:13:22.116Z,101514.97
2023-01-30T07:15:50.233Z,101508.97
2023-01-30T07:18:17.730Z,101508.28
2023-01-30T07:20:49.846Z,101507.53
2023-01-30T07:23:18.952Z,101509.50
2023-01-30T07:25:46.865Z,101509.28
2023-01-30T07:28:14.672Z,101518.56
2023-01-30T07:30:42.506Z,101518.56
2023-01-30T07:33:10.286Z,101520.88
2023-01-30T07:35:38.592Z,101524.69
2023-01-30T07:38:06.440Z,101516.38
2023-01-30T07:40:35.438Z,101526.13
2023-01-30T07:43:08.370Z,101528.50
2023-01-30T07:45:42.264Z,101507.78
2023-01-30T07:48:14.389Z,101496.81
2023-01-30T07:51:04.007Z,101505.34
2023-01-30T07:54:21.038Z,101493.16
2023-01-30T07:56:49.607Z,101489.53
2023-01-30T07:59:17.998Z,101487.97
2023-01-30T08:01:51.068Z,101480.97
2023-01-30T08:04:21.455Z,101484.41
2023-01-30T08:06:49.707Z,101481.91
2023-01-30T08:09:28.484Z,101479.59
2023-01-30T08:12:02.031Z,101479.25
2023-01-30T08:14:31.189Z,101487.81
2023-01-30T08:16:59.483Z,101484.94
2023-01-30T08:19:30.999Z,101482.25
2023-01-30T08:22:00.314Z,101468.72
2023-01-30T08:24:33.250Z,101468.94
2023-01-30T08:27:01.758Z,101468.03
2023-01-30T08:29:31.296Z,101464.16
2023-01-30T08:32:00.344Z,101467.34
2023-01-30T08:34:29.325Z,101471.81
2023-01-30T08:36:56.959Z,101462.50
2023-01-30T08:39:24.980Z,101453.72
2023-01-30T08:42:21.032Z,101458.56
2023-01-30T08:44:48.814Z,101450.81
2023-01-30T08:47:19.263Z,101454.53
2023-01-30T08:49:47.689Z,101443.56
2023-01-30T08:52:16.611Z,101429.78
2023-01-30T08:54:46.550Z,101445.59
2023-01-30T08:57:20.210Z,101440.56
2023-01-30T08:59:53.961Z,101448.28
2023-01-30T09:02:24.820Z,101441.53
2023-01-30T09:04:54.974Z,101436.59
2023-01-30T09:07:24.422Z,101433.59
2023-01-30T09:09:52.170Z,101443.19
2023-01-30T09:12:20.581Z,101440.22
2023-01-30T09:14:48.199Z,101428.72
2023-01-30T09:17:16.372Z,101425.19
2023-01-30T09:19:44.333Z,101431.69
2023-01-30T09:24:56.407Z,101431.97
2023-01-30T09:27:24.619Z,101419.91
2023-01-30T09:29:52.820Z,101416.41
2023-01-30T09:32:23.285Z,101424.75
2023-01-30T09:34:51.086Z,101407.84
2023-01-30T09:37:19.030Z,101408.41
2023-01-30T09:39:47.771Z,101397.78
2023-01-30T09:42:53.215Z,101399.50
2023-01-30T09:46:05.552Z,101403.66
2023-01-30T09:52:37.700Z,101402.44
2023-01-30T09:55:26.675Z,101393.50
2023-01-30T09:57:55.595Z,101388.66
2023-01-30T10:00:34.754Z,101393.41
2023-01-30T10:03:13.384Z,101384.91
2023-01-30T10:05:59.800Z,101380.34
2023-01-30T10:08:47.054Z,101371.09
2023-01-30T10:11:24.095Z,101369.22
2023-01-30T10:14:01.028Z,101358.50
2023-01-30T10:16:46.911Z,101355.47
2023-01-30T10:19:35.658Z,101352.34
2023-01-30T10:22:36.584Z,101346.09
2023-01-30T10:25:38.664Z,101345.69
2023-01-30T10:28:39.901Z,101339.63
2023-01-30T10:31:45.245Z,101329.88
2023-01-30T10:34:30.564Z,101330.03
2023-01-30T10:37:10.849Z,101320.22
2023-01-30T10:42:43.558Z,101323.34
2023-01-30T10:48:24.685Z,101325.22
2023-01-30T10:51:38.896Z,101324.59
2023-01-30T10:54:49.760Z,101312.03
2023-01-30T10:57:35.717Z,101305.66
2023-01-30T11:00:16.642Z,101307.81
2023-01-30T11:03:33.823Z,101309.09
2023-01-30T11:06:17.390Z,101295.84
2023-01-30T11:08:45.623Z,101293.63
2023-01-30T11:11:40.379Z,101302.72
2023-01-30T11:14:12.262Z,101303.28
2023-01-30T11:16:46.672Z,101300.16
2023-01-30T11:19:20.725Z,101301.47
2023-01-30T11:21:52.694Z,101311.59
2023-01-30T11:24:23.783Z,101306.16
2023-01-30T11:26:53.506Z,101302.72
2023-01-30T11:29:33.756Z,101301.09
2023-01-30T11:32:12.129Z,101304.78
2023-01-30T11:34:46.255Z,101301.69
2023-01-30T11:37:32.596Z,101302.41
2023-01-30T11:40:19.650Z,101304.91
2023-01-30T11:42:51.008Z,101301.38
2023-01-30T11:45:20.174Z,101300.31
2023-01-30T11:48:03.908Z,101291.97
2023-01-30T11:50:49.699Z,101305.53
2023-01-30T11:53:37.101Z,101302.94
2023-01-30T11:56:16.781Z,101298.69
2023-01-30T11:58:48.458Z,101309.94
2023-01-30T12:01:19.566Z,101306.06
2023-01-30T12:03:53.372Z,101311.75
2023-01-30T12:06:33.270Z,101317.47
2023-01-30T12:09:01.685Z,101315.53
2023-01-30T12:11:45.363Z,101303.44
2023-01-30T12:14:45.115Z,101317.09
2023-01-30T12:17:42.905Z,101308.66
2023-01-30T12:20:37.769Z,101302.50
2023-01-30T12:23:09.081Z,101298.69
2023-01-30T12:25:44.477Z,101309.84
2023-01-30T12:28:20.750Z,101309.59
2023-01-30T12:30:56.924Z,101301.88
2023-01-30T12:33:30.856Z,101310.56
2023-01-30T12:36:33.075Z,101309.13
2023-01-30T12:39:37.408Z,101308.78
2023-01-30T12:42:22.843Z,101307.09
2023-01-30T12:45:14.541Z,101296.06
2023-01-30T12:47:51.464Z,101307.28
2023-01-30T12:50:34.965Z,101299.97
2023-01-30T12:53:05.774Z,101297.88
2023-01-30T12:56:06.996Z,101295.25
2023-01-30T12:58:55.971Z,101300.84
2023-01-30T13:01:36.847Z,101291.97
2023-01-30T13:04:15.619Z,101292.94
2023-01-30T13:07:02.702Z,101297.88
2023-01-30T13:09:39.752Z,101289.34
2023-01-30T13:12:24.261Z,101287.59
2023-01-30T13:15:08.992Z,101286.56
2023-01-30T13:17:53.479Z,101284.19
2023-01-30T13:20:47.474Z,101285.78
2023-01-30T13:23:41.930Z,101280.84
2023-01-30T13:26:14.658Z,101284.56
2023-01-30T13:28:52.372Z,101288.06
2023-01-30T13:31:24.802Z,101281.53
2023-01-30T13:34:17.995Z,101275.88
2023-01-30T13:36:54.832Z,101273.97
2023-01-30T13:39:41.467Z,101269.97
2023-01-30T13:42:51.719Z,101267.59
2023-01-30T13:45:30.758Z,101275.50
2023-01-30T13:48:20.742Z,101274.56
2023-01-30T13:51:10.671Z,101280.44
2023-01-30T13:53:40.135Z,101283.53
2023-01-30T13:56:42.824Z,101278.44
2023-01-30T13:59:38.876Z,101283.81
2023-01-30T14:02:07.462Z,101280.06
2023-01-30T14:04:41.026Z,101285.50
2023-01-30T14:07:30.721Z,101285.00
2023-01-30T14:10:10.557Z,101286.41
2023-01-30T14:12:40.791Z,101285.94
2023-01-30T14:15:14.279Z,101286.13
2023-01-30T14:18:03.546Z,101296.75
2023-01-30T14:20:38.009Z,101291.28
2023-01-30T14:23:19.572Z,101286.75
2023-01-30T14:25:50.346Z,101290.16
2023-01-30T14:28:17.770Z,101295.47
2023-01-30T14:30:45.322Z,101301.78
2023-01-30T14:33:22.012Z,101298.03
2023-01-30T14:36:09.970Z,101298.94
2023-01-30T14:38:39.897Z,101294.78
2023-01-30T14:41:07.304Z,101294.78
2023-01-30T14:43:42.100Z,101298.00
2023-01-30T14:46:32.503Z,101305.16
2023-01-30T14:49:25.258Z,101301.47
2023-01-30T14:51:56.376Z,101295.16
2023-01-30T14:54:41.189Z,101302.06
2023-01-30T14:57:33.012Z,101305.06
2023-01-30T15:00:18.536Z,101310.06
2023-01-30T15:02:57.193Z,101306.50
2023-01-30T15:05:54.048Z,101308.84
2023-01-30T15:08:26.499Z,101301.66
2023-01-30T15:11:03.024Z,101305.41
2023-01-30T15:14:23.666Z,101298.41
2023-01-30T15:17:06.033Z,101293.03
2023-01-30T15:19:54.178Z,101291.81
2023-01-30T15:22:57.140Z,101287.78
2023-01-30T15:25:54.695Z,101279.84
2023-01-30T15:28:53.948Z,101283.94
2023-01-30T15:31:24.033Z,101288.94
2023-01-30T15:33:53.706Z,101291.94
2023-01-30T15:36:42.284Z,101291.59
2023-01-30T15:39:21.695Z,101291.72
2023-01-30T15:41:50.114Z,101278.72
2023-01-30T15:44:29.634Z,101290.28
2023-01-30T15:47:15.874Z,101288.84
2023-01-30T15:50:03.735Z,101290.69
2023-01-30T15:52:40.577Z,101276.22
2023-01-30T15:55:15.527Z,101282.38
2023-01-30T15:57:47.473Z,101279.84
2023-01-30T16:00:43.095Z,101282.88
2023-01-30T16:03:23.683Z,101288.69
2023-01-30T16:05:55.900Z,101301.50
2023-01-30T16:08:31.560Z,101302.56
2023-01-30T16:11:00.965Z,101303.81
2023-01-30T16:13:29.769Z,101304.44
2023-01-30T16:16:13.792Z,101305.06
2023-01-30T16:18:47.794Z,101306.31
2023-01-30T16:21:25.932Z,101306.72
2023-01-30T16:24:19.856Z,101303.41
2023-01-30T16:26:51.716Z,101301.94
2023-01-30T16:29:25.832Z,101296.50
2023-01-30T16:31:55.924Z,101302.38
2023-01-30T16:34:34.391Z,101310.19
2023-01-30T16:40:26.383Z,101305.06
2023-01-30T16:43:02.420Z,101301.22
2023-01-30T16:45:35.655Z,101297.88
2023-01-30T16:48:23.614Z,101303.69
2023-01-30T16:51:00.281Z,101303.84
2023-01-30T16:53:32.766Z,101304.66
2023-01-30T16:56:09.973Z,101302.66
2023-01-30T16:58:40.941Z,101301.09
2023-01-30T17:01:09.143Z,101305.25
2023-01-30T17:03:43.120Z,101300.34
2023-01-30T17:06:25.723Z,101310.66
2023-01-30T17:08:55.603Z,101309.22
2023-01-30T17:14:37.569Z,101304.66
2023-01-30T17:17:23.245Z,101297.13
2023-01-30T17:19:50.876Z,101286.00
2023-01-30T17:22:24.722Z,101285.91
2023-01-30T17:24:54.836Z,101286.66
2023-01-30T17:27:22.589Z,101275.41
2023-01-30T17:29:50.002Z,101278.63
2023-01-30T17:32:17.486Z,101281.44
2023-01-30T17:34:45.568Z,101285.91
2023-01-30T17:37:18.656Z,101285.50
2023-01-30T17:39:46.462Z,101279.34
2023-01-30T17:42:15.504Z,101283.63
2023-01-30T17:44:43.212Z,101275.50
2023-01-30T17:47:12.405Z,101279.38
2023-01-30T17:49:40.639Z,101273.31
2023-01-30T17:52:14.076Z,101274.25
2023-01-30T17:54:41.709Z,101272.91
2023-01-30T17:57:15.896Z,101278.09
2023-01-30T17:59:43.923Z,101278.19
2023-01-30T18:02:11.276Z,101276.75
2023-01-30T18:04:40.305Z,101274.84
2023-01-30T18:07:12.859Z,101285.69
2023-01-30T18:09:40.488Z,101287.31
2023-01-30T18:12:07.979Z,101283.91
2023-01-30T18:14:35.617Z,101284.06
2023-01-30T18:19:50.713Z,101277.16
2023-01-30T18:22:18.111Z,101277.91
2023-01-30T18:24:45.610Z,101285.47
2023-01-30T18:27:13.550Z,101281.63
2023-01-30T18:29:41.198Z,101266.75
2023-01-30T18:32:08.570Z,101277.06
2023-01-30T18:34:37.921Z,101282.56
2023-01-30T18:37:05.315Z,101277.03
2023-01-30T18:39:32.911Z,101268.59
2023-01-30T18:42:02.416Z,101273.78
2023-01-30T18:44:29.981Z,101271.28
2023-01-30T18:46:57.365Z,101276.78
2023-01-30T18:49:24.935Z,101269.59
2023-01-30T18:51:52.348Z,101283.00
2023-01-30T18:54:19.826Z,101278.91
2023-01-30T18:56:47.390Z,101270.25
2023-01-30T18:59:15.036Z,101274.81
2023-01-30T19:01:42.904Z,101275.56
2023-01-30T19:04:11.612Z,101274.41
2023-01-30T19:06:40.155Z,101275.47
2023-01-30T19:09:09.002Z,101265.91
2023-01-30T19:11:55.068Z,101267.25
2023-01-30T19:14:22.626Z,101264.22
2023-01-30T19:16:51.596Z,101261.44
2023-01-30T19:19:19.257Z,101269.97
2023-01-30T19:21:47.156Z,101261.72
2023-01-30T19:24:16.427Z,101262.59
2023-01-30T19:26:44.141Z,101257.34
2023-01-30T19:29:11.902Z,101259.03
2023-01-30T19:31:39.436Z,101260.72
2023-01-30T19:36:48.381Z,101253.53
2023-01-30T19:39:15.852Z,101252.31
2023-01-30T19:41:43.422Z,101257.06
2023-01-30T19:44:12.210Z,101247.63
2023-01-30T19:46:39.873Z,101256.34
2023-01-30T19:49:07.401Z,101248.53
2023-01-30T19:51:35.400Z,101259.28
2023-01-30T19:54:07.934Z,101257.16
2023-01-30T19:56:36.863Z,101261.13
2023-01-30T19:59:04.941Z,101259.13
2023-01-30T20:01:35.815Z,101254.94
2023-01-30T20:04:04.210Z,101263.16
2023-01-30T20:06:32.718Z,101262.25
2023-01-30T20:09:04.089Z,101256.88
2023-01-30T20:11:33.370Z,101250.63
2023-01-30T20:14:02.228Z,101251.66
2023-01-30T20:16:31.564Z,101256.66
2023-01-30T20:19:04.529Z,101254.84
2023-01-30T20:21:33.465Z,101257.97
2023-01-30T20:24:01.271Z,101267.28
2023-01-30T20:26:31.762Z,101267.75
2023-01-30T20:28:59.193Z,101279.81
2023-01-30T20:31:45.705Z,101265.00
2023-01-30T20:34:15.092Z,101279.41
2023-01-30T20:36:42.481Z,101270.41
2023-01-30T20:39:10.267Z,101268.75
2023-01-30T20:41:38.055Z,101263.75
2023-01-30T20:44:08.802Z,101262.47
2023-01-30T20:46:41.948Z,101273.53
2023-01-30T20:49:20.974Z,101260.00
2023-01-30T20:51:50.990Z,101263.41
2023-01-30T20:54:20.766Z,101262.56
2023-01-30T20:56:50.585Z,101260.31
2023-01-30T20:59:24.622Z,101259.78
2023-01-30T21:01:52.515Z,101255.38
2023-01-30T21:04:22.483Z,101264.38
2023-01-30T21:06:50.436Z,101265.69
2023-01-30T21:09:23.706Z,101266.31
2023-01-30T21:11:52.923Z,101262.47
2023-01-30T21:14:20.784Z,101263.09
2023-01-30T21:16:49.094Z,101256.50
2023-01-30T21:19:17.916Z,101261.44
2023-01-30T21:21:52.855Z,101259.09
2023-01-30T21:24:21.766Z,101253.50
2023-01-30T21:26:49.795Z,101246.25
2023-01-30T21:29:19.664Z,101242.41
2023-01-30T21:31:47.520Z,101239.22
2023-01-30T21:34:15.606Z,101247.94
2023-01-30T21:36:43.080Z,101247.56
2023-01-30T21:39:32.418Z,101245.16
2023-01-30T21:42:20.100Z,101242.75
2023-01-30T21:44:48.724Z,101249.44
2023-01-30T21:47:16.113Z,101238.19
2023-01-30T21:49:45.841Z,101236.50
2023-01-30T21:52:13.306Z,101229.69
2023-01-30T21:54:40.742Z,101241.13
2023-01-30T21:57:08.187Z,101225.19
2023-01-30T21:59:36.435Z,101223.38
2023-01-30T22:02:04.104Z,101222.00
2023-01-30T22:04:35.241Z,101224.81
2023-01-30T22:07:05.268Z,101219.88
2023-01-30T22:09:34.064Z,101219.19
2023-01-30T22:12:01.446Z,101218.25
2023-01-30T22:14:29.599Z,101218.47
2023-01-30T22:16:57.051Z,101217.09
2023-01-30T22:19:24.832Z,101220.41
2023-01-30T22:21:52.886Z,101223.72
2023-01-30T22:24:20.637Z,101220.19
2023-01-30T22:26:48.023Z,101218.53
2023-01-30T22:29:18.321Z,101231.72
2023-01-30T22:31:45.682Z,101222.47
2023-01-30T22:34:13.220Z,101221.88
2023-01-30T22:36:40.847Z,101211.66
2023-01-30T22:39:08.769Z,101216.41
2023-01-30T22:41:37.038Z,101214.28
2023-01-30T22:44:07.836Z,101211.78
2023-01-30T22:46:37.536Z,101201.25
2023-01-30T22:49:07.076Z,101209.16
2023-01-30T22:51:37.260Z,101193.94
2023-01-30T22:54:11.884Z,101197.13
2023-01-30T22:56:41.403Z,101190.34
2023-01-30T22:59:09.930Z,101194.06
2023-01-30T23:01:40.204Z,101186.63
2023-01-30T23:04:11.816Z,101198.06
2023-01-30T23:06:40.577Z,101196.47
2023-01-30T23:09:09.554Z,101196.69
2023-01-30T23:11:40.691Z,101195.47
2023-01-30T23:14:10.134Z,101189.44
2023-01-30T23:16:40.336Z,101184.75
2023-01-30T23:19:09.462Z,101191.53
2023-01-30T23:21:40.953Z,101190.38
2023-01-30T23:24:12.414Z,101191.38
2023-01-30T23:26:42.780Z,101194.41
2023-01-30T23:29:13.528Z,101194.00
2023-01-30T23:31:42.184Z,101180.56
2023-01-30T23:34:14.876Z,101190.38
2023-01-30T23:36:42.822Z,101190.66
2023-01-30T23:39:12.246Z,101195.38
2023-01-30T23:41:40.474Z,101191.09
2023-01-30T23:44:08.308Z,101198.47
2023-01-30T23:46:38.970Z,101197.25
2023-01-30T23:49:13.933Z,101186.44
2023-01-30T23:51:44.329Z,101191.53
2023-01-30T23:54:13.082Z,101190.38
2023-01-30T23:56:43.691Z,101189.56
2023-01-30T23:59:12.469Z,101188.69
